^^
Station Historical Data
Daily Summary for September 8, 2017 Units:  Metric    English   Both
« Previous Day
Next Day »
Daily Weekly Monthly Yearly Custom
  High: Low: Average:
Temperature: 30.7 °C 8.1 °C 17.3 °C
Dew Point: 0.2 °C -5.6 °C -2.2 °C
Humidity: 51% 10% 31%
Wind Speed: 13km/h -1609.1km/h -10.6km/h
Wind Gust: 22.5km/h - -
Wind- -
Pressure: 1019.5 hPa 1013.8 hPa -
Precipitation: 0 mm    
Historical Graphs
 
 
Tabular Data for September 8, 2017
Time Temperature Dew Point Pressure Wind Wind Speed Wind Gust Humidity Rainfall Rate (Hourly) solar Conditions
00:03 14.7 °C 0.2 °C 1017.5 hPa Calm     37% 0 mm 0.0 W/m2
00:09 14.6 °C 0.1 °C 1017.5 hPa Calm     37% 0 mm 0.0 W/m2
00:14 14.5 °C 0 °C 1017.5 hPa Calm     37% 0 mm 0.0 W/m2
00:19 14.4 °C -0.1 °C 1017.5 hPa Calm     37% 0 mm 0.0 W/m2
00:29 14.2 °C 0.1 °C 1017.5 hPa Calm     38% 0 mm 0.0 W/m2
00:34 14.1 °C 0 °C 1017.5 hPa Calm     38% 0 mm 0.0 W/m2
00:40 14 °C -0.1 °C 1017.5 hPa Calm     38% 0 mm 0.0 W/m2
00:45 13.7 °C 0 °C 1017.5 hPa Calm     39% 0 mm 0.0 W/m2
00:50 13.5 °C -0.2 °C 1017.5 hPa Calm     39% 0 mm 0.0 W/m2
00:55 13.3 °C 0 °C 1017.5 hPa Calm     40% 0 mm 0.0 W/m2
01:00 13.1 °C -0.2 °C 1017.8 hPa Calm     40% 0 mm 0.0 W/m2
01:05 12.9 °C -0.7 °C 1017.8 hPa Calm     39% 0 mm 0.0 W/m2
01:11 12.7 °C -0.9 °C 1017.8 hPa Calm     39% 0 mm 0.0 W/m2
01:16 12.5 °C -0.7 °C 1017.5 hPa Calm     40% 0 mm 0.0 W/m2
01:22 12.6 °C -0.6 °C 1017.5 hPa Calm     40% 0 mm 0.0 W/m2
01:27 12.4 °C -0.8 °C 1017.5 hPa Calm     40% 0 mm 0.0 W/m2
01:32 12.1 °C -0.8 °C 1017.8 hPa Calm     41% 0 mm 0.0 W/m2
01:37 11.9 °C -0.6 °C 1017.5 hPa Calm     42% 0 mm 0.0 W/m2
01:42 11.9 °C -0.6 °C 1017.5 hPa Calm     42% 0 mm 0.0 W/m2
01:47 11.8 °C -0.7 °C 1017.5 hPa Calm     42% 0 mm 0.0 W/m2
01:52 11.7 °C -0.8 °C 1017.5 hPa Calm     42% 0 mm 0.0 W/m2
01:58 11.5 °C -1 °C 1017.5 hPa Calm     42% 0 mm 0.0 W/m2
02:03 11.6 °C -0.9 °C 1017.5 hPa Calm     42% 0 mm 0.0 W/m2
02:08 11.6 °C -0.9 °C 1017.2 hPa Calm     42% 0 mm 0.0 W/m2
02:13 11.6 °C -1.2 °C 1017.2 hPa Calm     41% 0 mm 0.0 W/m2
02:18 11.3 °C -1.2 °C 1017.2 hPa Calm     42% 0 mm 0.0 W/m2
02:29 11 °C -1.4 °C 1017.2 hPa Calm     42% 0 mm 0.0 W/m2
02:34 10.8 °C -1.3 °C 1016.8 hPa Calm     43% 0 mm 0.0 W/m2
02:39 10.6 °C -1.2 °C 1016.8 hPa Calm     44% 0 mm 0.0 W/m2
02:49 10.6 °C -1.2 °C 1016.8 hPa Calm     44% 0 mm 0.0 W/m2
02:54 10.6 °C -1.5 °C 1016.8 hPa Calm     43% 0 mm 0.0 W/m2
02:59 10.4 °C -1.6 °C 1016.5 hPa Calm     43% 0 mm 0.0 W/m2
03:04 10.2 °C -1.5 °C 1016.5 hPa Calm     44% 0 mm 0.0 W/m2
03:09 10.1 °C -1.3 °C 1016.5 hPa Calm     45% 0 mm 0.0 W/m2
03:14 10.1 °C -1.3 °C 1016.8 hPa Calm     45% 0 mm 0.0 W/m2
03:20 10.3 °C -0.8 °C 1016.5 hPa Calm     46% 0 mm 0.0 W/m2
03:30 10.3 °C -1.1 °C 1016.5 hPa Calm     45% 0 mm 0.0 W/m2
03:35 10.3 °C -1.1 °C 1016.5 hPa Calm     45% 0 mm 0.0 W/m2
03:40 10.2 °C -1.5 °C 1016.5 hPa Calm     44% 0 mm 0.0 W/m2
03:45 10.1 °C -1.6 °C 1016.5 hPa Calm     44% 0 mm 0.0 W/m2
03:51 9.9 °C -1.5 °C 1016.5 hPa Calm     45% 0 mm 0.0 W/m2
03:56 9.8 °C -1.6 °C 1016.1 hPa Calm     45% 0 mm 0.0 W/m2
04:01 9.9 °C -1.2 °C 1016.1 hPa Calm     46% 0 mm 0.0 W/m2
04:06 9.9 °C -1.5 °C 1016.1 hPa Calm     45% 0 mm 0.0 W/m2
04:16 9.8 °C -1.6 °C 1016.5 hPa Calm     45% 0 mm 0.0 W/m2
04:22 9.7 °C -1.4 °C 1016.5 hPa Calm     46% 0 mm 0.0 W/m2
04:32 9.9 °C -1.2 °C 1016.5 hPa Calm     46% 0 mm 0.0 W/m2
04:37 10 °C -1.1 °C 1016.5 hPa Calm     46% 0 mm 0.0 W/m2
04:43 9.9 °C -1.5 °C 1016.1 hPa Calm     45% 0 mm 0.0 W/m2
04:48 9.8 °C -1.3 °C 1016.5 hPa Calm     46% 0 mm 0.0 W/m2
04:53 9.7 °C -1.1 °C 1016.5 hPa Calm     47% 0 mm 0.0 W/m2
04:58 9.4 °C -1.3 °C 1016.5 hPa Calm     47% 0 mm 0.0 W/m2
05:04 9.6 °C -1.2 °C 1016.5 hPa Calm     47% 0 mm 0.0 W/m2
05:09 9.7 °C -1.1 °C 1016.5 hPa Calm     47% 0 mm 0.0 W/m2
05:19 9.7 °C -1.1 °C 1016.5 hPa Calm     47% 0 mm 0.0 W/m2
05:24 9.6 °C -1.2 °C 1016.5 hPa Calm     47% 0 mm 0.0 W/m2
05:29 9.5 °C -1.3 °C 1016.5 hPa Calm     47% 0 mm 0.0 W/m2
05:34 9.4 °C -1.1 °C 1016.8 hPa Calm     48% 0 mm 0.0 W/m2
05:39 9.2 °C -1.2 °C 1016.8 hPa Calm     48% 0 mm 0.0 W/m2
05:45 9.1 °C -1.1 °C 1016.8 hPa Calm     49% 0 mm 0.0 W/m2
05:50 8.9 °C -1.8 °C 1016.8 hPa Calm     47% 0 mm 0.0 W/m2
05:55 8.7 °C -2.3 °C 1016.8 hPa Calm     46% 0 mm 0.0 W/m2
06:06 8.3 °C -1.8 °C 1016.8 hPa Calm     49% 0 mm 0.0 W/m2
06:15 8.2 °C -1.9 °C 1016.8 hPa Calm     49% 0 mm 0.0 W/m2
06:22 8.1 °C -2.3 °C 1017.2 hPa Calm     48% 0 mm 0.0 W/m2
06:56 8.3 °C -1.2 °C 1017.5 hPa Calm     51% 0 mm 0.0 W/m2
07:27 8.3 °C -2.6 °C 1018.2 hPa Calm     46% 0 mm 21.0 W/m2
07:36 8.6 °C -3 °C 1018.2 hPa Calm     44% 0 mm 58.0 W/m2
07:47 9.2 °C -3.1 °C 1018.5 hPa Calm     42% 0 mm 93.0 W/m2
07:59 9.8 °C -2.8 °C 1018.8 hPa Calm     41% 0 mm 135.0 W/m2
08:14 11.1 °C -2.3 °C 1018.8 hPa Calm     39% 0 mm 199.0 W/m2
09:08 15.3 °C -0.5 °C 1019.2 hPa Calm     34% 0 mm 378.0 W/m2
09:29 16.4 °C -0.8 °C 1019.2 hPa Calm     31% 0 mm 443.0 W/m2
09:46 17.2 °C -0.5 °C 1019.5 hPa Calm     30% 0 mm 506.0 W/m2
10:16 19.2 °C -0.3 °C 1019.2 hPa Calm     27% 0 mm 596.0 W/m2
10:42 20.4 °C -0.3 °C 1018.8 hPa Calm   4.8 km/h 25% 0 mm 656.0 W/m2
10:57 20.8 °C -0.5 °C 1018.8 hPa SSW 4.7 km/h 6.4 km/h 24% 0 mm 686.0 W/m2
11:38 22.2 °C -0.5 °C 1018.5 hPa Calm     22% 0 mm 756.0 W/m2
11:52 22.5 °C -0.9 °C 1018.2 hPa Calm     21% 0 mm 772.0 W/m2
12:45 25.2 °C -2.4 °C 1017.2 hPa Calm     16% 0 mm 807.0 W/m2
13:47 27.5 °C -5.6 °C 1016.1 hPa Calm     11% 0 mm 775.0 W/m2
14:23 28 °C -5.2 °C 1015.1 hPa Calm     11% 0 mm 729.0 W/m2
14:36 28.3 °C -5 °C 1014.8 hPa Calm     11% 0 mm 700.0 W/m2
14:46 28.7 °C -4.7 °C 1014.8 hPa Calm     11% 0 mm 680.0 W/m2
15:00 29.4 °C -5.4 °C 1014.4 hPa SW 1.4 km/h 8 km/h 10% 0 mm 657.0 W/m2
15:12 28.9 °C -4.5 °C 1014.4 hPa SW 4.7 km/h 9.7 km/h 11% 0 mm 619.0 W/m2
15:26 29.1 °C -4.4 °C 1014.1 hPa Calm     11% 0 mm 582.0 W/m2
15:32 29.2 °C -4.3 °C 1014.1 hPa Calm     11% 0 mm 573.0 W/m2
15:40 29.2 °C -4.3 °C 1014.1 hPa Calm   4.8 km/h 11% 0 mm 541.0 W/m2
15:45 29.3 °C -4.2 °C 1014.1 hPa Calm   3.2 km/h 11% 0 mm 526.0 W/m2
15:50 29.4 °C -4.1 °C 1014.1 hPa Calm     11% 0 mm 508.0 W/m2
15:56 29.6 °C -4 °C 1013.8 hPa Calm     11% 0 mm 492.0 W/m2
16:02 29.7 °C -3.9 °C 1014.1 hPa Calm     11% 0 mm 480.0 W/m2
16:08 30.1 °C -4.9 °C 1013.8 hPa SW 3.2 km/h 3.2 km/h 10% 0 mm 468.0 W/m2
16:14 29.9 °C -5 °C 1013.8 hPa Calm     10% 0 mm 445.0 W/m2
16:25 30.1 °C -4.9 °C 1013.8 hPa Calm     10% 0 mm 406.0 W/m2
16:37 30.3 °C -3.4 °C 1013.8 hPa Calm     11% 0 mm 374.0 W/m2
16:52 30.7 °C -4.4 °C 1013.8 hPa Calm     10% 0 mm 329.0 W/m2
17:16 30.4 °C -3.4 °C 1013.8 hPa Calm     11% 0 mm 236.0 W/m2
17:27 30.2 °C -3.5 °C 1013.8 hPa Calm     11% 0 mm 199.0 W/m2
17:39 29.9 °C -2.6 °C 1013.8 hPa Calm     12% 0 mm 158.0 W/m2
17:49 29.9 °C -3.8 °C 1013.8 hPa SW 13 km/h 13 km/h 11% 0 mm 102.0 W/m2
18:07 28.7 °C -3.5 °C 1013.8 hPa SSW 9.7 km/h 14.5 km/h 12% 0 mm 54.0 W/m2
18:17 28.2 °C -3.9 °C 1013.8 hPa SSW 9.7 km/h 12.9 km/h 12% 0 mm 30.0 W/m2
18:27 27.8 °C -4.2 °C 1014.1 hPa SSW 9.7 km/h 9.7 km/h 12% 0 mm 14.0 W/m2
18:37 27.2 °C -3.6 °C 1014.1 hPa SSW 13 km/h 14.5 km/h 13% 0 mm 7.0 W/m2
18:44 26.7 °C -4 °C 1014.1 hPa SSW 6.4 km/h 9.7 km/h 13% 0 mm 0.0 W/m2
19:00 25.8 °C -3.7 °C 1014.1 hPa SSW 1.4 km/h 4.8 km/h 14% 0 mm 0.0 W/m2
19:15 25.1 °C -3.4 °C 1014.1 hPa Calm     15% 0 mm 0.0 W/m2
19:35 24.3 °C -4 °C 1014.4 hPa Calm     15% 0 mm 0.0 W/m2
19:47 23.6 °C -3.7 °C 1014.4 hPa Calm     16% 0 mm 0.0 W/m2
19:56 23.6 °C -3.7 °C 1014.8 hPa SSW 6.4 km/h 9.7 km/h 16% 0 mm 0.0 W/m2
20:11 23.6 °C -3.7 °C 1014.8 hPa SSW 11.1 km/h 11.3 km/h 16% 0 mm 0.0 W/m2
20:32 23.6 °C -3.7 °C 1014.8 hPa SSW 9.7 km/h 12.9 km/h 16% 0 mm 0.0 W/m2
20:42 23.6 °C -3.7 °C 1015.1 hPa SSW 6.4 km/h 9.7 km/h 16% 0 mm 0.0 W/m2
20:57 22.6 °C -3.7 °C 1015.1 hPa SSW 9.7 km/h 9.7 km/h 17% 0 mm 0.0 W/m2
21:11 21.9 °C -4.3 °C 1015.1 hPa SSW 7.9 km/h 9.7 km/h 17% 0 mm 0.0 W/m2
21:21 22.2 °C -4 °C 1015.5 hPa Calm     17% 0 mm 0.0 W/m2
21:27 23.1 °C -3.3 °C 1015.5 hPa SSW 11.1 km/h 22.5 km/h 17% 0 mm 0.0 W/m2
21:37 23.6 °C -3.7 °C 1015.5 hPa SSW 7.9 km/h 16.1 km/h 16% 0 mm 0.0 W/m2
21:56 21.9 °C -3.5 °C 1015.5 hPa SSW 6.4 km/h 11.3 km/h 18% 0 mm 0.0 W/m2
22:02 21.3 °C -4 °C 1015.5 hPa SSW 9.7 km/h 11.3 km/h 18% 0 mm 0.0 W/m2
22:12 21.1 °C -3.4 °C 1015.5 hPa SSW 13 km/h 13 km/h 19% 0 mm 0.0 W/m2
22:17 21.1 °C -3.4 °C 1015.5 hPa SSW 11.1 km/h 14.5 km/h 19% 0 mm 0.0 W/m2
22:24 21.1 °C -3.4 °C 1015.5 hPa SSW 11.1 km/h 12.9 km/h 19% 0 mm 0.0 W/m2
23:09 19.7 °C -3.9 °C 1015.5 hPa SSW 7.9 km/h 11.3 km/h 20% 0 mm 0.0 W/m2
23:14 19.7 °C -3.9 °C 1015.5 hPa SSW 1.4 km/h 6.4 km/h 20% 0 mm 0.0 W/m2
23:19 19.6 °C -4 °C 1015.5 hPa Calm     20% 0 mm 0.0 W/m2
23:29 19.1 °C -4.4 °C 1015.5 hPa Calm     20% 0 mm 0.0 W/m2
23:40 19.1 °C -4.4 °C 1015.5 hPa Calm   -1607.7 km/h 20% 0 mm 0.0 W/m2
23:46 19.1 °C -4.4 °C 1015.5 hPa North -1609.1 km/h -1607.7 km/h 20% 0 mm 0.0 W/m2
Canyon Roadhouse, Fishriver Canyon, Namibia
Compliments of Weather Underground - 2.25 mb